Аэропорт: Хабаровск-Новый. Хабаровск

ICAO: UHHH

METAR:
2019/03/26 13:00
UHHH 261300Z VRB01MPS CAVOK M04/M09 Q1005 R23L/090060 NOSIG RMK QFE747/0996
METAR:
2019/03/26 12:21
TAF TAF UHHH 261048Z 2612/2718 18003MPS CAVOK 
      BECMG 2620/2622 24004MPS SCT007 
     FM270200 27007MPS 9999 SCT020CB 
      TEMPO 2703/2712 31008G13MPS